sensor_id;sensor_type;location;lat;lon;timestamp;temperature;humidity
11136;DHT22;5622;50.840;4.948;2023-03-29T13:58:51;15.40;99.90
11136;DHT22;5622;50.840;4.948;2023-03-29T15:44:54;16.20;99.90
11136;DHT22;5622;50.840;4.948;2023-03-29T21:34:26;13.80;99.90
11136;DHT22;5622;50.840;4.948;2023-03-29T21:36:54;13.90;99.90
11136;DHT22;5622;50.840;4.948;2023-03-29T21:39:24;13.90;99.90
11136;DHT22;5622;50.840;4.948;2023-03-29T21:41:52;13.90;99.90
11136;DHT22;5622;50.840;4.948;2023-03-29T21:44:19;13.90;99.90
11136;DHT22;5622;50.840;4.948;2023-03-29T21:46:49;13.90;99.90
11136;DHT22;5622;50.840;4.948;2023-03-29T21:49:17;14.10;99.90
11136;DHT22;5622;50.840;4.948;2023-03-29T21:51:46;14.00;99.90
11136;DHT22;5622;50.840;4.948;2023-03-29T21:54:14;14.10;99.90
11136;DHT22;5622;50.840;4.948;2023-03-29T21:56:42;14.10;99.90
11136;DHT22;5622;50.840;4.948;2023-03-29T21:59:10;14.10;99.90
11136;DHT22;5622;50.840;4.948;2023-03-29T22:01:38;14.10;99.90
11136;DHT22;5622;50.840;4.948;2023-03-29T22:04:05;14.10;99.90
11136;DHT22;5622;50.840;4.948;2023-03-29T22:06:34;14.10;99.90
11136;DHT22;5622;50.840;4.948;2023-03-29T22:09:03;14.10;99.90
11136;DHT22;5622;50.840;4.948;2023-03-29T22:11:30;14.10;99.90
11136;DHT22;5622;50.840;4.948;2023-03-29T22:13:59;14.10;99.90
11136;DHT22;5622;50.840;4.948;2023-03-29T22:16:26;14.10;99.90
11136;DHT22;5622;50.840;4.948;2023-03-29T22:18:56;14.10;99.90
11136;DHT22;5622;50.840;4.948;2023-03-29T22:21:25;14.00;99.90
11136;DHT22;5622;50.840;4.948;2023-03-29T22:23:56;14.00;99.90
11136;DHT22;5622;50.840;4.948;2023-03-29T22:26:27;13.90;99.90
11136;DHT22;5622;50.840;4.948;2023-03-29T22:28:56;13.80;99.90
11136;DHT22;5622;50.840;4.948;2023-03-29T22:31:25;13.80;99.90
11136;DHT22;5622;50.840;4.948;2023-03-29T22:33:52;13.60;99.90
11136;DHT22;5622;50.840;4.948;2023-03-29T22:36:21;13.70;99.90
11136;DHT22;5622;50.840;4.948;2023-03-29T22:38:50;13.70;99.90
11136;DHT22;5622;50.840;4.948;2023-03-29T22:41:18;13.60;99.90
11136;DHT22;5622;50.840;4.948;2023-03-29T22:43:49;13.50;99.90
11136;DHT22;5622;50.840;4.948;2023-03-29T22:46:17;13.40;99.90
11136;DHT22;5622;50.840;4.948;2023-03-29T22:48:45;13.40;99.90
11136;DHT22;5622;50.840;4.948;2023-03-29T22:51:12;13.30;99.90
11136;DHT22;5622;50.840;4.948;2023-03-29T22:53:41;13.30;99.90
11136;DHT22;5622;50.840;4.948;2023-03-29T22:56:08;13.30;99.90
11136;DHT22;5622;50.840;4.948;2023-03-29T22:58:36;13.10;99.90
11136;DHT22;5622;50.840;4.948;2023-03-29T23:01:05;13.30;99.90
11136;DHT22;5622;50.840;4.948;2023-03-29T23:03:33;13.30;99.90
11136;DHT22;5622;50.840;4.948;2023-03-29T23:06:00;13.30;99.90
11136;DHT22;5622;50.840;4.948;2023-03-29T23:08:28;13.30;99.90
11136;DHT22;5622;50.840;4.948;2023-03-29T23:10:56;13.30;99.90
11136;DHT22;5622;50.840;4.948;2023-03-29T23:13:24;13.40;99.90
11136;DHT22;5622;50.840;4.948;2023-03-29T23:15:54;13.40;99.90
11136;DHT22;5622;50.840;4.948;2023-03-29T23:18:24;13.30;99.90
11136;DHT22;5622;50.840;4.948;2023-03-29T23:20:53;13.40;99.90
11136;DHT22;5622;50.840;4.948;2023-03-29T23:23:22;13.50;99.90
11136;DHT22;5622;50.840;4.948;2023-03-29T23:25:51;13.40;99.90
11136;DHT22;5622;50.840;4.948;2023-03-29T23:28:22;13.60;99.90
11136;DHT22;5622;50.840;4.948;2023-03-29T23:30:55;13.60;99.90
11136;DHT22;5622;50.840;4.948;2023-03-29T23:33:25;13.60;99.90
11136;DHT22;5622;50.840;4.948;2023-03-29T23:35:53;13.70;99.90
11136;DHT22;5622;50.840;4.948;2023-03-29T23:38:21;13.80;99.90
11136;DHT22;5622;50.840;4.948;2023-03-29T23:40:52;13.90;99.90
11136;DHT22;5622;50.840;4.948;2023-03-29T23:43:23;14.00;99.90
11136;DHT22;5622;50.840;4.948;2023-03-29T23:45:55;14.10;99.90
11136;DHT22;5622;50.840;4.948;2023-03-29T23:48:24;14.30;99.90
11136;DHT22;5622;50.840;4.948;2023-03-29T23:50:52;14.30;99.90
11136;DHT22;5622;50.840;4.948;2023-03-29T23:53:22;14.40;99.90
11136;DHT22;5622;50.840;4.948;2023-03-29T23:55:49;14.40;99.90
11136;DHT22;5622;50.840;4.948;2023-03-29T23:58:17;14.40;99.90
